Cygnus — CGDW — position and weather

sailwx.info

Track history (hours):
 
Tides and Currents Weather Stations Pressure Air Temp Water Temp Dewpoint Dewpoint Depression Visibility Wind Speed Wind Dir Waves Ship Positions

Cygnus

Last reported at 2017-Dec-08 01:36 UTC. Time now 2017-Dec-11 19:09 UTC.
Position N 47°19' W 052°41'.

; draft 5.5 m.

Type: SAR. MMSI: 316017000.

Date/timePositionNaut miles runAvg speedWind from/ knotsBaromVisibWave heightAir tempDewpointWater temp
2017-Dec-08 01:36N 47°19' W 052°41'3 7.5
2017-Dec-08 01:13N 47°22' W 052°39'2 7.2
2017-Dec-08 00:54N 47°24' W 052°38'7 6.6
2017-Dec-07 23:47N 47°31' W 052°33'3 7.7
2017-Dec-07 23:27N 47°32' W 052°36'4 8.0
2017-Dec-07 22:57N 47°34' W 052°41'1 1.3
2017-Dec-07 22:26N 47°34' W 052°42'0 0.0
2017-Dec-07 22:00N 47°34' W 052°42'0 0.0
2017-Dec-07 21:29N 47°34' W 052°42'0 0.0
2017-Dec-07 20:59N 47°34' W 052°42'0 0.0
2017-Dec-07 20:28N 47°34' W 052°42'0 0.0
2017-Dec-07 19:57N 47°34' W 052°42'0 0.0
2017-Dec-07 19:29N 47°34' W 052°42'0 0.0
2017-Dec-07 18:57N 47°34' W 052°42'0 0.0
2017-Dec-07 18:28N 47°34' W 052°42'0 0.0
2017-Dec-07 17:57N 47°34' W 052°42'0 0.0
2017-Dec-07 17:29N 47°34' W 052°42'0 0.0
2017-Dec-07 16:59N 47°34' W 052°42'0 0.0
2017-Dec-07 16:27N 47°34' W 052°42'0 0.0
2017-Dec-07 16:00N 47°34' W 052°42'0 0.0
2017-Dec-07 15:26N 47°34' W 052°42'0 0.0
2017-Dec-07 14:58N 47°34' W 052°42'0 0.0
2017-Dec-07 14:26N 47°34' W 052°42'0 0.0
2017-Dec-07 13:59N 47°34' W 052°42'0 0.0
2017-Dec-07 13:27N 47°34' W 052°42'0 0.0
2017-Dec-07 12:55N 47°34' W 052°42'0 0.0
2017-Dec-07 12:27N 47°34' W 052°42'0 0.0
2017-Dec-07 12:00N 47°34' W 052°42'0 0.0
2017-Dec-07 11:28N 47°34' W 052°42'0 0.0
2017-Dec-07 10:57N 47°34' W 052°42'0 0.0
2017-Dec-07 10:26N 47°34' W 052°42'0 0.0
2017-Dec-07 09:56N 47°34' W 052°42'0 0.0
2017-Dec-07 09:30N 47°34' W 052°42'0 0.0
2017-Dec-07 08:59N 47°34' W 052°42'0 0.0
2017-Dec-07 08:29N 47°34' W 052°42'0 0.0
2017-Dec-07 07:58N 47°34' W 052°42'0 0.0
2017-Dec-07 07:27N 47°34' W 052°42'0 0.0
2017-Dec-07 06:56N 47°34' W 052°42'0 0.0
2017-Dec-07 06:25N 47°34' W 052°42'0 0.0
2017-Dec-07 05:59N 47°34' W 052°42'0 0.0
2017-Dec-07 05:29N 47°34' W 052°42'0 0.0
2017-Dec-07 04:58N 47°34' W 052°42'0 0.0
2017-Dec-07 04:16N 47°34' W 052°42'0 0.0
2017-Dec-07 03:56N 47°34' W 052°42'0 0.0
2017-Dec-07 03:30N 47°34' W 052°42'0 0.0
2017-Dec-07 02:58N 47°34' W 052°42'0 0.0
2017-Dec-07 02:27N 47°34' W 052°42'0 0.0
2017-Dec-07 02:00N 47°34' W 052°42'0 0.0
2017-Dec-07 01:29N 47°34' W 052°42'0 0.0
2017-Dec-07 00:59N 47°34' W 052°42'0 0.0
2017-Dec-07 00:29N 47°34' W 052°42'0 0.0
2017-Dec-06 23:56N 47°34' W 052°42'0 0.0
2017-Dec-06 23:30N 47°34' W 052°42'0 0.0
2017-Dec-06 22:58N 47°34' W 052°42'0 0.0
2017-Dec-06 22:27N 47°34' W 052°42'0 0.0
2017-Dec-06 21:57N 47°34' W 052°42'0 0.0
2017-Dec-06 21:27N 47°34' W 052°42'0 0.0
2017-Dec-06 21:00N 47°34' W 052°42'  
Track history (hours):
 
Tides and Currents Weather Stations Pressure Air Temp Water Temp Dewpoint Dewpoint Depression Visibility Wind Speed Wind Dir Waves Ship Positions

Cygnus

Last reported at 2017-Dec-08 01:36 UTC. Time now 2017-Dec-11 19:09 UTC.
Position N 47°19' W 052°41'.

; draft 5.5 m.

Type: SAR. MMSI: 316017000.

Date/timePositionNaut miles runAvg speedWind from/ knotsBaromVisibWave heightAir tempDewpointWater temp
2017-Dec-08 01:36N 47°19' W 052°41'3 7.5
2017-Dec-08 01:13N 47°22' W 052°39'2 7.2
2017-Dec-08 00:54N 47°24' W 052°38'7 6.6
2017-Dec-07 23:47N 47°31' W 052°33'3 7.7
2017-Dec-07 23:27N 47°32' W 052°36'4 8.0
2017-Dec-07 22:57N 47°34' W 052°41'1 1.3
2017-Dec-07 22:26N 47°34' W 052°42'0 0.0
2017-Dec-07 22:00N 47°34' W 052°42'0 0.0
2017-Dec-07 21:29N 47°34' W 052°42'0 0.0
2017-Dec-07 20:59N 47°34' W 052°42'0 0.0
2017-Dec-07 20:28N 47°34' W 052°42'0 0.0
2017-Dec-07 19:57N 47°34' W 052°42'0 0.0
2017-Dec-07 19:29N 47°34' W 052°42'0 0.0
2017-Dec-07 18:57N 47°34' W 052°42'0 0.0
2017-Dec-07 18:28N 47°34' W 052°42'0 0.0
2017-Dec-07 17:57N 47°34' W 052°42'0 0.0
2017-Dec-07 17:29N 47°34' W 052°42'0 0.0
2017-Dec-07 16:59N 47°34' W 052°42'0 0.0
2017-Dec-07 16:27N 47°34' W 052°42'0 0.0
2017-Dec-07 16:00N 47°34' W 052°42'0 0.0
2017-Dec-07 15:26N 47°34' W 052°42'0 0.0
2017-Dec-07 14:58N 47°34' W 052°42'0 0.0
2017-Dec-07 14:26N 47°34' W 052°42'0 0.0
2017-Dec-07 13:59N 47°34' W 052°42'0 0.0
2017-Dec-07 13:27N 47°34' W 052°42'0 0.0
2017-Dec-07 12:55N 47°34' W 052°42'0 0.0
2017-Dec-07 12:27N 47°34' W 052°42'0 0.0
2017-Dec-07 12:00N 47°34' W 052°42'0 0.0
2017-Dec-07 11:28N 47°34' W 052°42'0 0.0
2017-Dec-07 10:57N 47°34' W 052°42'0 0.0
2017-Dec-07 10:26N 47°34' W 052°42'0 0.0
2017-Dec-07 09:56N 47°34' W 052°42'0 0.0
2017-Dec-07 09:30N 47°34' W 052°42'0 0.0
2017-Dec-07 08:59N 47°34' W 052°42'0 0.0
2017-Dec-07 08:29N 47°34' W 052°42'0 0.0
2017-Dec-07 07:58N 47°34' W 052°42'0 0.0
2017-Dec-07 07:27N 47°34' W 052°42'0 0.0
2017-Dec-07 06:56N 47°34' W 052°42'0 0.0
2017-Dec-07 06:25N 47°34' W 052°42'0 0.0
2017-Dec-07 05:59N 47°34' W 052°42'0 0.0
2017-Dec-07 05:29N 47°34' W 052°42'0 0.0
2017-Dec-07 04:58N 47°34' W 052°42'0 0.0
2017-Dec-07 04:16N 47°34' W 052°42'0 0.0
2017-Dec-07 03:56N 47°34' W 052°42'0 0.0
2017-Dec-07 03:30N 47°34' W 052°42'0 0.0
2017-Dec-07 02:58N 47°34' W 052°42'0 0.0
2017-Dec-07 02:27N 47°34' W 052°42'0 0.0
2017-Dec-07 02:00N 47°34' W 052°42'0 0.0
2017-Dec-07 01:29N 47°34' W 052°42'0 0.0
2017-Dec-07 00:59N 47°34' W 052°42'0 0.0
2017-Dec-07 00:29N 47°34' W 052°42'0 0.0
2017-Dec-06 23:56N 47°34' W 052°42'0 0.0
2017-Dec-06 23:30N 47°34' W 052°42'0 0.0
2017-Dec-06 22:58N 47°34' W 052°42'0 0.0
2017-Dec-06 22:27N 47°34' W 052°42'0 0.0
2017-Dec-06 21:57N 47°34' W 052°42'0 0.0
2017-Dec-06 21:27N 47°34' W 052°42'0 0.0
2017-Dec-06 21:00N 47°34' W 052°42'  

Dump ship's entire track history